메인 페이지
METAR-TAF:

METAR-TAF

공항 :

베오그라드 니콜라 테슬라 국제공항

베오그라드, 세르비아

위도: 44-49N, 경도: 020-17E, 고도: 96m

현재 날씨관측

예보는 8분 전, 00:00시(UTC)에 발표되었습니다.
북서4kt
온도 -5°C
습도 73%
기압 1039 hPa
시정 10km 이상
1500m 미만 상공 구름 및 적란운 없음

METAR: LYBE 240000Z 31004KT CAVOK M05/M09 Q1039 NOSIG

시각: 01:08 (00:08 UTC)

예보

예보는 1 시간 8분 전, 23:00시(UTC)에 발표되었습니다.
예보 대상 시간: 24일 00시부터 24일 24시까지 (UTC)
5kt
시정 10km 이상
1500m 미만 상공 구름 및 적란운 없음

TAF: LYBE 232300Z 2400/2424 36005KT CAVOK TX03/2413Z TNM09/2406Z

4,000개 이상의 공항 관측 자료 및 예보 (METAR 및 TAF 보고).

지도상에서 검색 가능한 기상관측소가 노란 점과 빨간 점으로 표시되어 있습니다.

기상관측소 명을 보려면 표시 위로 마우스를 이동하세요.

날씨 관측과 예보를 보려면 클릭하세요.

지도 변경 : 확대하려면 엑스 표시가 있는 녹색 버튼, 축소하려면 빼기 표시가 있는 녹색 버튼, 다음 페이지의 지도를 보려면 녹색 화살표를 클릭하세요.


METAR-TAF: